Kermanshah, Iran

9:05 PM IRST on September 22, 2014 (GMT +0330)
Shahid Ashrafi Esfahani | Change Station
CLOSE
Current Station
Airport
Location: Kermanshah,
Elevation: 4327 ft
Nearby Weather Stations

Elev 4327 ft 34.35 °N, 47.16 °E | Updated 35 minutes ago

Clear
Clear
72 °F
Feels Like 72 °F
N
14
Wind Variable Wind from West

Today
High -- | Low -- °F
--% Chance of Precip.
Yesterday
High -- | Low -- °F
Precip. -- in
6:09 AM 6:18 PM
Waning Crescent, 2% visible
Pressure 30.01 in
Visibility -9999.0 miles
Clouds
Dew Point 23 °F
Humidity 16%
Rainfall 0.00 in
Snow Depth Not available.
UV Not available.
Pollen Not available.
Air Quality Not available.
Flu Activity Not available.
METAR OICC 221700Z 28012KT CAVOK 22/M05 Q1016 A3002

More Conditions Fewer Conditions

Pressure 30.01 in
Visibility -9999.0 miles
Clouds
Dew Point 23 °F
Humidity 16%
Rainfall 0.00 in
Snow Depth Not available.
UV Not available.
Pollen Not available.
Air Quality Not available.
Flu Activity Not available.
METAR OICC 221700Z 28012KT CAVOK 22/M05 Q1016 A3002

More Conditions Fewer Conditions

10-Day Weather Forecast

Almanac

Astronomy

Sep. 22, 2014 Rise Set
Actual Time 6:09 AM IRST 6:18 PM IRST
Civil Twilight 5:44 AM IRST 6:43 PM IRST
Nautical Twilight 5:14 AM IRST 7:12 PM IRST
Astronomical Twilight 4:45 AM IRST 7:42 PM IRST
Moon 4:20 AM IRST 5:11 PM IRST
Length of Visible Light 12h 59m
Length of Day
12h 09m
Tomorrow will be 2m 7s shorter.
Waning Crescent, 2% of the Moon is Illuminated
Today
Waning Crescent
Sep 24
New
Oct 1
First Quarter
Oct 8
Full
Oct 15
Last Quarter

Today's Extremes

Country Highs Country Lows

Community

WunderPhotos

Upload Photos

1,755,493 photos uploaded!

WunderBlogs® & News

Nearby

Snow Depth

Not available.

Earthquake Activity

City Distance Mag. Time & Date
No recent earthquake activity has been reported nearby.
Minimum magnitude displayed is 2.5.

Coastal Water Temperatures

Place Temperature
No Stations Reporting

Nearby Weather Stations